Flight Track Log - Related Links

Times and Time Zones

All times are in EDT time to prevent confusion due to time zone crossing. See the DAL2234 flight status page for this flight to view local times or setup timezone preferences in your user account.

Time Position Orientation Groundspeed Altitude Reporting Facility
EDT Latitude Longitude Course Direction KTS MPH feet Rate Location/Type
Sat 08:49:42 AM 33.9342 -118.4381 81° East 191 220 1,500  Level Los Angeles Center
Sat 08:50:42 AM 33.8858 -118.4975 226° Southwest 250 288 3,400 2,380 Climbing Los Angeles Center
Sat 08:51:43 AM 33.8144 -118.5081 187° South 259 298 6,300 2,529 Climbing Los Angeles Center
Sat 08:52:00 AM 34.0028 -117.9440 81° East  Level Estimated
Sat 08:52:43 AM 33.7458 -118.5161 186° South 268 308 8,500  Level Los Angeles Center
Sat 08:53:00 AM 34.0226 -117.7891 81° East  Level Estimated
Sat 08:53:43 AM 33.6831 -118.4786 154° Southeast 283 326 10,800  Level Los Angeles Center
Sat 08:54:00 AM 34.0421 -117.6342 81° East  Level Estimated
Sat 08:54:44 AM 33.6489 -118.3600 109° East 319 367 12,700  Level Los Angeles Center
Sat 08:55:00 AM 34.0611 -117.4821 81° East  Level Estimated
Sat 08:55:44 AM 33.6442 -118.2481 93° East 345 397 14,600  Level Los Angeles Center
Sat 08:56:44 AM 33.6450 -118.1236 90° East 376 433 15,700 1,400 Climbing Los Angeles Center
Sat 08:57:44 AM 33.6442 -117.9892 90° East 402 463 17,400 1,686 Climbing Los Angeles Center
Sat 08:58:45 AM 33.6436 -117.8489 90° East 416 479 19,100 1,488 Climbing Los Angeles Center
Sat 08:59:45 AM 33.6436 -117.7053 90° East 429 494 20,400 1,388 Climbing Los Angeles Center
Sat 09:00:46 AM 33.6431 -117.5558 90° East 445 512 21,900 1,438 Climbing Los Angeles Center
Sat 09:01:46 AM 33.6422 -117.4017 90° East 460 529 23,300 1,350 Climbing Los Angeles Center
Sat 09:02:46 AM 33.6406 -117.2458 91° East 467 537 24,600 1,488 Climbing Los Angeles Center
Sat 09:03:47 AM 33.6400 -117.0861 90° East 475 547 26,300 1,537 Climbing Los Angeles Center
Sat 09:04:47 AM 33.6378 -116.9297 91° East 475 547 27,700 1,339 Climbing Los Angeles Center
Sat 09:05:48 AM 33.6572 -116.7511 82° East 481 554 29,000 1,140 Climbing Los Angeles Center
Sat 09:06:48 AM 33.6933 -116.5928 75° East 489 563 30,000 1,000 Climbing Los Angeles Center
Sat 09:07:48 AM 33.7297 -116.4297 75° East 497 572 31,000 1,140 Climbing Los Angeles Center
Sat 09:08:49 AM 33.7669 -116.2681 74° East 501 577 32,300 1,240 Climbing Los Angeles Center
Sat 09:09:49 AM 33.8022 -116.1053 75° East 501 577 33,500 1,140 Climbing Los Angeles Center
Sat 09:10:50 AM 33.8358 -115.9453 76° East 498 573 34,600 992 Climbing Los Angeles Center
Sat 09:11:50 AM 33.8700 -115.7856 76° East 493 567 35,500 793 Climbing Los Angeles Center
Sat 09:12:51 AM 33.9033 -115.6239 76° East 495 570 36,200 694 Climbing Los Angeles Center
Sat 09:13:51 AM 33.9358 -115.4633 76° East 495 570 36,900 397 Climbing Los Angeles Center
Sat 09:14:52 AM 33.9581 -115.2981 81° East 495 570 37,000 49 Climbing Los Angeles Center
Sat 09:15:53 AM 33.9814 -115.1322 80° East 497 572 37,000  Level Los Angeles Center
Sat 09:16:53 AM 34.0061 -114.9678 80° East 498 573 37,000  Level Los Angeles Center
Sat 09:17:54 AM 34.0339 -114.8053 78° East 498 573 37,000  Level Los Angeles Center
Sat 09:18:54 AM 34.0608 -114.6425 79° East 497 572 37,000  Level Los Angeles Center
Sat 09:19:55 AM 34.0844 -114.4786 80° East 497 572 37,000  Level Los Angeles Center
Sat 09:20:56 AM 34.1081 -114.3139 80° East 497 572 37,000  Level Los Angeles Center
Sat 09:21:56 AM 34.1283 -114.1464 82° East 500 575 37,000  Level Los Angeles Center
Sat 09:22:45 AM 34.1458 -114.0169 81° East 500 575 37,000  Level Albuquerque Center
Sat 09:23:45 AM 34.1669 -113.8547 81° East 498 573 37,000  Level Albuquerque Center
Sat 09:24:46 AM 34.1897 -113.6894 80° East 498 573 37,000  Level Albuquerque Center
Sat 09:25:47 AM 34.2131 -113.5183 81° East 505 581 37,000  Level Albuquerque Center
Sat 09:26:48 AM 34.2350 -113.3517 81° East 505 581 37,000  Level Albuquerque Center
Sat 09:27:49 AM 34.2567 -113.1844 81° East 505 581 37,000  Level Albuquerque Center
Sat 09:28:50 AM 34.2778 -113.0181 81° East 504 580 37,000  Level Albuquerque Center
Sat 09:29:51 AM 34.3039 -112.8172 81° East 505 581 37,000  Level Albuquerque Center
Sat 09:30:52 AM 34.3244 -112.6503 81° East 504 580 37,000  Level Albuquerque Center
Sat 09:31:53 AM 34.3458 -112.4817 81° East 504 580 37,000  Level Albuquerque Center
Sat 09:32:54 AM 34.3664 -112.3131 82° East 504 580 37,000  Level Albuquerque Center
Sat 09:33:55 AM 34.3869 -112.1453 82° East 504 580 37,000  Level Albuquerque Center
Sat 09:34:56 AM 34.4069 -111.9753 82° East 504 580 37,000  Level Albuquerque Center
Sat 09:35:57 AM 34.4275 -111.8067 82° East 504 580 37,000  Level Albuquerque Center
Sat 09:36:58 AM 34.4469 -111.6369 82° East 504 580 37,000  Level Albuquerque Center
Sat 09:37:59 AM 34.4672 -111.4669 82° East 505 581 37,000  Level Albuquerque Center
Sat 09:39:00 AM 34.4861 -111.2983 82° East 505 581 37,000  Level Albuquerque Center
Sat 09:40:01 AM 34.5061 -111.1292 82° East 505 581 37,000  Level Albuquerque Center
Sat 09:41:02 AM 34.5250 -110.9611 82° East 505 581 37,000  Level Albuquerque Center
Sat 09:42:03 AM 34.5431 -110.7931 83° East 505 581 37,000  Level Albuquerque Center
Sat 09:43:04 AM 34.5625 -110.6167 82° East 505 581 37,000  Level Albuquerque Center
Sat 09:44:05 AM 34.5817 -110.4289 83° East 505 581 37,000  Level Albuquerque Center
Sat 09:45:06 AM 34.6003 -110.2686 82° East 504 580 37,000  Level Albuquerque Center
Sat 09:46:07 AM 34.6167 -110.1086 83° East 504 580 37,000  Level Albuquerque Center
Sat 09:47:08 AM 34.6356 -109.9214 83° East 503 579 37,000  Level Albuquerque Center
Sat 09:48:09 AM 34.6517 -109.7594 83° East 503 579 37,000  Level Albuquerque Center
Sat 09:49:12 AM 34.6706 -109.5731 83° East 503 579 37,000  Level Albuquerque Center
Sat 09:50:11 AM 34.6869 -109.4094 83° East 504 580 37,000  Level Albuquerque Center
Sat 09:51:12 AM 34.7025 -109.2492 83° East 504 580 37,000  Level Albuquerque Center
Sat 09:52:13 AM 34.7208 -109.0597 83° East 504 580 37,000  Level Albuquerque Center
Sat 09:53:14 AM 34.7361 -108.8972 83° East 504 580 37,000  Level Albuquerque Center
Sat 09:54:16 AM 34.7514 -108.7364 83° East 504 580 37,000  Level Albuquerque Center
Sat 09:55:17 AM 34.7686 -108.5475 84° East 504 580 37,000  Level Albuquerque Center
Sat 09:56:18 AM 34.7831 -108.3869 84° East 504 580 37,000  Level Albuquerque Center
Sat 09:57:19 AM 34.8000 -108.1975 84° East 504 580 37,000  Level Albuquerque Center
Sat 09:58:20 AM 34.8117 -108.0544 84° East 504 580 37,000  Level Albuquerque Center
Sat 09:59:21 AM 34.8272 -107.8850 84° East 505 581 37,000  Level Albuquerque Center
Sat 10:00:22 AM 34.8428 -107.6806 85° East 505 581 37,000  Level Albuquerque Center
Sat 10:01:23 AM 34.8581 -107.5028 84° East 505 581 37,000  Level Albuquerque Center
Sat 10:02:24 AM 34.8722 -107.3322 84° East 506 582 37,000  Level Albuquerque Center
Sat 10:03:26 AM 34.8853 -107.1614 85° East 507 583 37,000  Level Albuquerque Center
Sat 10:04:27 AM 34.8994 -106.9789 85° East 506 582 37,000  Level Albuquerque Center
Sat 10:05:28 AM 34.9125 -106.8239 84° East 505 581 37,000  Level Albuquerque Center
Sat 10:06:29 AM 34.9250 -106.6544 85° East 505 581 37,000  Level Albuquerque Center
Sat 10:07:31 AM 34.9344 -106.4817 86° East 513 590 37,000  Level Albuquerque Center
Sat 10:08:32 AM 34.9419 -106.3114 87° East 512 589 37,000  Level Albuquerque Center
Sat 10:09:33 AM 34.9508 -106.1433 86° East 504 580 37,000  Level Albuquerque Center
Sat 10:10:34 AM 34.9606 -105.9392 87° East 504 580 37,000  Level Albuquerque Center
Sat 10:11:36 AM 34.9672 -105.7711 87° East 503 579 37,000  Level Albuquerque Center
Sat 10:12:37 AM 34.9756 -105.6003 87° East 504 580 37,000  Level Albuquerque Center
Sat 10:13:38 AM 34.9847 -105.4314 86° East 507 583 37,000  Level Albuquerque Center
Sat 10:14:40 AM 34.9900 -105.2556 88° East 509 586 37,000  Level Albuquerque Center
Sat 10:15:41 AM 34.9981 -105.0819 87° East 510 587 37,000  Level Albuquerque Center
Sat 10:16:42 AM 35.0050 -104.9072 87° East 510 587 37,000  Level Albuquerque Center
Sat 10:17:44 AM 35.0139 -104.7033 87° East 511 588 37,000  Level Albuquerque Center
Sat 10:18:45 AM 35.0206 -104.5286 87° East 511 588 37,000  Level Albuquerque Center
Sat 10:19:46 AM 35.0258 -104.3553 88° East 512 589 37,000  Level Albuquerque Center
Sat 10:20:48 AM 35.0306 -104.1822 88° East 512 589 37,000  Level Albuquerque Center
Sat 10:21:49 AM 35.0375 -104.0092 87° East 512 589 37,000  Level Albuquerque Center
Sat 10:22:51 AM 35.0444 -103.8367 87° East 512 589 37,000  Level Albuquerque Center
Sat 10:23:52 AM 35.0489 -103.6619 88° East 512 589 37,000  Level Albuquerque Center
Sat 10:24:54 AM 35.0547 -103.4894 88° East 511 588 37,000  Level Albuquerque Center
Sat 10:25:55 AM 35.0589 -103.2886 88° East 508 585 37,000  Level Albuquerque Center
Sat 10:26:57 AM 35.0633 -103.1175 88° East 505 581 37,000  Level Albuquerque Center
Sat 10:27:59 AM 35.0669 -102.9542 88° East 503 579 37,000  Level Albuquerque Center
Sat 10:29:00 AM 35.0700 -102.7867 89° East 499 574 37,000  Level Albuquerque Center
Sat 10:30:02 AM 35.0750 -102.6192 88° East 498 573 37,000  Level Albuquerque Center
Sat 10:31:03 AM 35.0781 -102.4494 89° East 498 573 37,000  Level Albuquerque Center
Sat 10:32:05 AM 35.0806 -102.2481 89° East 498 573 37,000  Level Albuquerque Center
Sat 10:33:07 AM 35.0833 -102.0800 89° East 498 573 37,000  Level Albuquerque Center
Sat 10:34:09 AM 35.0872 -101.9256 88° East 499 574 37,000  Level Albuquerque Center
Sat 10:35:10 AM 35.0928 -101.7253 88° East 500 575 37,000  Level Albuquerque Center
Sat 10:36:12 AM 35.0978 -101.5592 88° East 500 575 37,000  Level Albuquerque Center
Sat 10:37:14 AM 35.0986 -101.3900 90° East 500 575 37,000  Level Albuquerque Center
Sat 10:38:15 AM 35.0944 -101.2122 92° East 500 575 37,000  Level Albuquerque Center
Sat 10:39:17 AM 35.0986 -101.0483 88° East 493 567 37,000  Level Albuquerque Center
Sat 10:40:19 AM 35.0989 -100.8836 90° East 492 566 37,000  Level Albuquerque Center
Sat 10:41:21 AM 35.1003 -100.7167 89° East 491 565 37,000  Level Albuquerque Center
Sat 10:42:22 AM 35.1019 -100.5525 89° East 491 565 37,000  Level Albuquerque Center
Sat 10:43:24 AM 35.1022 -100.3592 90° East 488 562 37,000  Level Albuquerque Center
Sat 10:44:26 AM 35.1022 -100.1947 90° East 488 562 37,000  Level Albuquerque Center
Sat 10:45:28 AM 35.1017 -100.0303 90° East 487 560 37,000  Level Albuquerque Center
Sat 10:46:30 AM 35.1008 -99.8672 90° East 486 559 37,000  Level Albuquerque Center
Sat 10:47:32 AM 35.1008 -99.7028 90° East 486 559 37,000  Level Albuquerque Center
Sat 10:48:33 AM 35.1000 -99.5394 90° East 486 559 37,000  Level Albuquerque Center
Sat 10:49:35 AM 35.0981 -99.3431 91° East 485 558 37,000  Level Albuquerque Center
Sat 10:50:37 AM 35.0978 -99.1800 90° East 485 558 37,000  Level Albuquerque Center
Sat 10:52:07 AM 35.0944 -98.9528 91° East 481 554 37,000  Level Fort Worth Center
Sat 10:53:09 AM 35.0928 -98.7900 91° East 481 554 37,000  Level Fort Worth Center
Sat 10:54:11 AM 35.0903 -98.5950 91° East 479 551 37,000  Level Fort Worth Center
Sat 10:55:13 AM 35.0894 -98.4381 90° East 478 550 37,000  Level Fort Worth Center
Sat 10:56:16 AM 35.0875 -98.2767 91° East 478 550 37,000  Level Fort Worth Center
Sat 10:57:18 AM 35.0822 -98.1156 92° East 476 548 37,000  Level Fort Worth Center
Sat 10:58:20 AM 35.0800 -97.9567 91° East 473 544 37,000  Level Fort Worth Center
Sat 10:59:22 AM 35.0764 -97.7658 91° East 471 542 37,000  Level Fort Worth Center
Sat 11:00:24 AM 35.0722 -97.6067 92° East 473 544 37,000  Level Fort Worth Center
Sat 11:01:26 AM 35.0689 -97.4456 91° East 478 550 37,000  Level Fort Worth Center
Sat 11:02:28 AM 35.0642 -97.2844 92° East 481 554 37,000  Level Fort Worth Center
Sat 11:03:30 AM 35.0600 -97.0878 91° East 486 559 37,000  Level Fort Worth Center
Sat 11:04:32 AM 35.0572 -96.9253 91° East 485 558 37,000  Level Fort Worth Center
Sat 11:05:35 AM 35.0522 -96.7619 92° East 486 559 37,000  Level Fort Worth Center
Sat 11:06:37 AM 35.0489 -96.6003 91° East 482 555 37,000  Level Fort Worth Center
Sat 11:07:39 AM 35.0431 -96.4372 92° East 482 555 37,000  Level Fort Worth Center
Sat 11:08:41 AM 35.0375 -96.2419 92° East 482 555 37,000  Level Fort Worth Center
Sat 11:09:43 AM 35.0308 -96.0778 93° East 484 557 37,000  Level Fort Worth Center
Sat 11:10:45 AM 35.0256 -95.9161 92° East 483 556 37,000  Level Fort Worth Center
Sat 11:11:47 AM 35.0208 -95.7575 92° East 481 554 37,000  Level Fort Worth Center
Sat 11:12:49 AM 35.0147 -95.5956 93° East 480 552 37,000  Level Fort Worth Center
Sat 11:13:52 AM 35.0072 -95.4344 93° East 479 551 37,000  Level Fort Worth Center
Sat 11:14:54 AM 34.9994 -95.2408 93° East 478 550 37,000  Level Fort Worth Center
Sat 11:15:56 AM 34.9925 -95.0811 93° East 477 549 37,000  Level Fort Worth Center
Sat 11:16:58 AM 34.9850 -94.9214 93° East 476 548 37,000  Level Fort Worth Center
Sat 11:17:33 AM 34.9750 -94.8233 97° East 476 548 37,000  Level Memphis Center
Sat 11:18:34 AM 34.9594 -94.6650 97° East 475 547 37,000  Level Memphis Center
Sat 11:19:36 AM 34.9458 -94.5117 96° East 473 544 37,000  Level Memphis Center
Sat 11:21:39 AM 34.9136 -94.1703 96° East 472 543 37,000  Level Memphis Center
Sat 11:22:41 AM 34.8986 -94.0119 97° East 472 543 37,000  Level Memphis Center
Sat 11:23:42 AM 34.8789 -93.8558 99° East 472 543 37,000  Level Memphis Center
Sat 11:24:44 AM 34.8533 -93.7003 101° East 471 542 37,000  Level Memphis Center
Sat 11:26:17 AM 34.8094 -93.4481 102° East 471 542 37,000  Level Fort Worth Center
Sat 11:26:47 AM 34.7947 -93.3894 107° East 471 542 37,000  Level Memphis Center
Sat 11:27:49 AM 34.7544 -93.2400 108° East 469 540 37,000  Level Memphis Center
Sat 11:28:50 AM 34.7072 -93.0633 108° East 466 536 37,000  Level Memphis Center
Sat 11:29:52 AM 34.6681 -92.9144 108° East 466 536 37,000  Level Memphis Center
Sat 11:30:54 AM 34.6300 -92.7669 107° East 465 535 37,000  Level Memphis Center
Sat 11:31:55 AM 34.5914 -92.6178 107° East 464 534 37,000  Level Memphis Center
Sat 11:32:57 AM 34.5431 -92.4733 112° Southeast 464 534 37,000  Level Memphis Center
Sat 11:33:58 AM 34.4958 -92.3325 112° Southeast 462 532 37,000  Level Memphis Center
Sat 11:35:00 AM 34.4633 -92.1839 105° East 459 528 37,000  Level Memphis Center
Sat 11:36:01 AM 34.4422 -92.0003 98° East 458 527 37,000  Level Memphis Center
Sat 11:37:03 AM 34.4272 -91.8464 97° East 459 528 37,000  Level Memphis Center
Sat 11:38:04 AM 34.4119 -91.6975 97° East 459 528 37,000  Level Memphis Center
Sat 11:39:06 AM 34.3967 -91.5442 97° East 460 529 37,000  Level Memphis Center
Sat 11:40:07 AM 34.3986 -91.3892 89° East 459 528 37,000  Level Memphis Center
Sat 11:41:09 AM 34.4108 -91.2336 85° East 461 531 37,000  Level Memphis Center
Sat 11:42:11 AM 34.4239 -91.0489 85° East 461 531 37,000  Level Memphis Center
Sat 11:43:12 AM 34.4350 -90.8933 85° East 461 531 37,000  Level Memphis Center
Sat 11:44:14 AM 34.4217 -90.7408 96° East 458 527 37,000  Level Memphis Center
Sat 11:45:16 AM 34.4003 -90.5894 100° East 457 526 37,000  Level Memphis Center
Sat 11:46:17 AM 34.3819 -90.4375 98° East 457 526 37,000  Level Memphis Center
Sat 11:47:19 AM 34.3633 -90.2864 98° East 457 526 37,000  Level Memphis Center
Sat 11:48:21 AM 34.3397 -90.1053 99° East 457 526 37,000  Level Memphis Center
Sat 11:49:22 AM 34.3200 -89.9508 99° East 460 529 37,000 -439 Level Memphis Center
Sat 11:50:24 AM 34.3008 -89.7944 98° East 468 539 36,100 -1,016 Descending Memphis Center
Sat 11:51:26 AM 34.2833 -89.6342 97° East 477 549 34,900 -1,268 Descending Memphis Center
Sat 11:52:27 AM 34.2661 -89.4753 97° East 478 550 33,500 -927 Descending Memphis Center
Sat 11:53:29 AM 34.2458 -89.3161 99° East 479 551 33,000 -242 Descending Memphis Center
Sat 11:54:31 AM 34.2233 -89.1203 98° East 488 562 33,000  Level Memphis Center
Sat 11:55:33 AM 34.2044 -88.9583 98° East 488 562 33,000 -146 Level Memphis Center
Sat 11:56:34 AM 34.1842 -88.7861 98° East 488 562 32,700 -780 Descending Memphis Center
Sat 11:57:36 AM 34.1683 -88.6236 97° East 488 562 31,400 -823 Descending Memphis Center
Sat 11:58:38 AM 34.1506 -88.4606 97° East 488 562 31,000 -194 Descending Memphis Center
Sat 11:59:40 AM 34.1331 -88.2958 97° East 491 565 31,000 -585 Level Memphis Center
Sat 12:00:41 PM 34.1253 -88.1311 93° East 493 567 29,800 -976 Descending Memphis Center
Sat 12:01:43 PM 34.1208 -87.9664 92° East 493 567 29,000 -387 Descending Memphis Center
Sat 12:02:45 PM 34.1144 -87.7769 92° East 494 568 29,000  Level Memphis Center
Sat 12:03:47 PM 34.1089 -87.6117 92° East 494 568 29,000  Level Memphis Center
Sat 12:04:48 PM 34.1156 -87.4456 87° East 497 572 29,000  Level Memphis Center
Sat 12:05:50 PM 34.1417 -87.2811 79° East 499 574 29,000  Level Memphis Center
Sat 12:06:52 PM 34.1681 -87.1172 79° East 499 574 29,000  Level Memphis Center
Sat 12:07:54 PM 34.2000 -86.9239 79° East 498 573 29,000  Level Memphis Center
Sat 12:08:55 PM 34.2247 -86.7617 80° East 497 572 29,000  Level Memphis Center
Sat 12:09:57 PM 34.2142 -86.5942 94° East 500 575 29,000  Level Memphis Center
Sat 12:10:59 PM 34.2031 -86.4286 95° East 500 575 29,000  Level Memphis Center
Sat 12:12:01 PM 34.1900 -86.2647 95° East 497 572 29,000 -146 Level Memphis Center
Sat 12:13:02 PM 34.1772 -86.1006 95° East 496 571 28,700 -732 Descending Memphis Center
Sat 12:14:04 PM 34.1647 -85.9367 95° East 496 571 27,500 -1,374 Descending Memphis Center
Sat 12:15:13 PM 34.1464 -85.7231 96° East 485 558 25,700 -1,969 Descending Atlanta Center
Sat 12:16:15 PM 34.1339 -85.5669 95° East 473 544 23,200 -2,565 Descending Atlanta Center
Sat 12:17:17 PM 34.1211 -85.4147 96° East 463 533 20,400 -2,565 Descending Atlanta Center
Sat 12:18:19 PM 34.1089 -85.2611 95° East 459 528 17,900 -2,323 Descending Atlanta Center
Sat 12:19:21 PM 34.0961 -85.1167 96° East 438 504 15,600 -1,935 Descending Atlanta Center
Sat 12:20:23 PM 34.0608 -84.9886 108° East 412 474 13,900 -1,728 Descending Atlanta Center
Sat 12:21:26 PM 33.9731 -84.8731 132° Southeast 395 455 12,000 -912 Descending Atlanta Center
Sat 12:22:28 PM 33.8986 -84.7822 135° Southeast 386 444 12,000 -49 Level Atlanta Center
Sat 12:23:29 PM 33.8167 -84.6833 135° Southeast 381 438 11,900 -50 Descending Atlanta TRACON
Sat 12:24:29 PM 33.7500 -84.6000 134° Southeast 321 369 11,900 -1,213 Level Atlanta TRACON
Sat 12:26:37 PM 33.7331 -84.4031 96° East 304 350 8,100 -1,867 Descending Atlanta Center
Sat 12:27:29 PM 33.7333 -84.3167 90° East 291 335 6,300 -1,661 Descending Atlanta TRACON
Sat 12:28:29 PM 33.7333 -84.2167 90° East 279 321 5,000 -650 Descending Atlanta TRACON
Sat 12:29:29 PM 33.7333 -84.1333 90° East 279 321 5,000  Level Atlanta TRACON
Sat 12:30:29 PM 33.7333 -84.0333 90° East 246 283 5,000  Level Atlanta TRACON
Sat 12:31:23 PM 33.6833 -84.0167 164° South 238 274 5,000 43 Level Atlanta TRACON
Sat 12:32:50 PM 33.6475 -84.0836 237° Southwest 215 247 5,100  Climbing Atlanta Center
Sat 12:33:29 PM 33.6500 -84.1333 273° West 215 247 5,000 -581 Descending Atlanta TRACON
Sat 12:34:23 PM 33.6500 -84.2000 270° West 216 249 4,200 -950 Descending Atlanta TRACON
Sat 12:35:29 PM 33.6500 -84.2667 270° West 191 220 3,100 -905 Descending Atlanta TRACON
Sat 12:36:29 PM 33.6500 -84.3333 270° West 155 178 2,300 -800 Descending Atlanta TRACON
Sat 12:37:29 PM 33.6500 -84.3833 270° West 137 158 1,500 -800 Descending Atlanta TRACON

Login

Don't have an account? Register now (free) for customized features, flight alerts, and more!